Project City, California
Current Conditions -  °F | °C
As of 5:53 PM on Wednesday 22 Oct 2014 (Local Time) from KRDD Reporting Station
Scattered Clouds Scattered Clouds  
Wind Chill: 17°   Ceiling: Unl
Heat Index: 17°   Visibility: 10mi
Dew Point: 11°   Wind: 5mph
Humidity: 67%   Direction: 100°E
Pressure: 30.01"   Gusts: NA
Location:  40.6814°N, 122.35°W
Report Text: KRDD 230053Z 10004KT 10SM SCT080 17/11 A3001 RMK AO2 SLP161 T01720111
Loading
Personal Weather Stations






























Interactive Weather Map
Tropical Storm Tracking
New forecast layout! Learn more

10-Day Weather Forecast

Advertisements
Track Severe Weather on mobile